createdAt,value
2022-09-28T00:01:21.088Z,15.28
2022-09-28T00:06:25.205Z,15.02
2022-09-28T00:11:28.242Z,14.93
2022-09-28T00:16:35.955Z,14.82
2022-09-28T00:21:40.274Z,14.79
2022-09-28T00:26:43.865Z,14.70
2022-09-28T00:31:46.519Z,14.65
2022-09-28T00:36:48.845Z,14.54
2022-09-28T00:41:51.144Z,14.24
2022-09-28T00:47:13.314Z,14.27
2022-09-28T00:52:25.551Z,14.33
2022-09-28T00:57:28.904Z,14.15
2022-09-28T01:02:31.404Z,14.08
2022-09-28T01:07:34.636Z,14.13
2022-09-28T01:12:36.528Z,14.08
2022-09-28T01:17:48.858Z,14.14
2022-09-28T01:23:22.437Z,14.12
2022-09-28T01:28:28.903Z,14.24
2022-09-28T01:33:47.502Z,14.18
2022-09-28T01:38:57.912Z,14.22
2022-09-28T01:44:03.069Z,14.04
2022-09-28T01:49:30.936Z,14.40
2022-09-28T01:54:45.612Z,14.28
2022-09-28T02:00:08.477Z,14.24
2022-09-28T02:05:23.292Z,14.39
2022-09-28T02:10:31.141Z,14.35
2022-09-28T02:16:00.731Z,14.37
2022-09-28T02:21:40.745Z,14.37
2022-09-28T02:26:44.950Z,14.33
2022-09-28T02:31:47.102Z,14.33
2022-09-28T02:36:49.505Z,14.42
2022-09-28T02:42:00.420Z,14.44
2022-09-28T02:47:14.589Z,14.45
2022-09-28T02:52:41.165Z,14.53
2022-09-28T02:58:07.201Z,14.51
2022-09-28T03:03:23.840Z,14.43
2022-09-28T03:08:35.183Z,14.54
2022-09-28T03:13:38.238Z,14.64
2022-09-28T03:18:40.426Z,14.67
2022-09-28T03:23:42.991Z,14.67
2022-09-28T03:28:51.781Z,14.68
2022-09-28T03:33:59.901Z,14.65
2022-09-28T03:39:01.863Z,14.64
2022-09-28T03:44:04.299Z,14.53
2022-09-28T03:49:10.040Z,14.65
2022-09-28T03:54:12.979Z,14.65
2022-09-28T03:59:14.899Z,14.68
2022-09-28T04:04:17.004Z,14.77
2022-09-28T04:09:20.178Z,14.67
2022-09-28T04:14:22.198Z,14.50
2022-09-28T04:19:24.092Z,14.51
2022-09-28T04:24:52.299Z,14.40
2022-09-28T04:29:54.144Z,14.27
2022-09-28T04:34:56.094Z,14.28
2022-09-28T04:39:58.005Z,14.22
2022-09-28T04:45:00.981Z,13.99
2022-09-28T04:50:04.771Z,13.98
2022-09-28T04:55:13.537Z,14.00
2022-09-28T05:00:16.250Z,14.00
2022-09-28T05:05:29.978Z,13.96
2022-09-28T05:11:06.197Z,13.90
2022-09-28T05:16:09.024Z,14.03
2022-09-28T05:21:26.325Z,14.07
2022-09-28T05:26:28.333Z,14.13
2022-09-28T05:31:30.501Z,14.24
2022-09-28T05:36:42.843Z,14.17
2022-09-28T05:41:44.712Z,14.28
2022-09-28T05:46:46.642Z,14.14
2022-09-28T05:51:49.053Z,14.20
2022-09-28T05:56:51.336Z,14.49
2022-09-28T06:01:53.340Z,14.44
2022-09-28T06:06:56.704Z,14.67
2022-09-28T06:11:59.627Z,14.86
2022-09-28T06:17:09.841Z,15.06
2022-09-28T06:22:11.915Z,15.13
2022-09-28T06:27:20.614Z,15.09
2022-09-28T06:32:22.658Z,15.03
2022-09-28T06:37:27.255Z,15.31
2022-09-28T06:42:30.120Z,15.32
2022-09-28T06:48:00.369Z,15.27
2022-09-28T06:53:15.123Z,15.39
2022-09-28T06:58:32.402Z,15.71
2022-09-28T07:03:35.674Z,15.84
2022-09-28T07:09:06.281Z,16.35
2022-09-28T07:14:57.498Z,16.58
2022-09-28T07:20:15.783Z,16.63
2022-09-28T07:25:20.593Z,16.92
2022-09-28T07:30:44.777Z,16.89
2022-09-28T07:35:52.654Z,16.78
2022-09-28T07:41:11.938Z,16.84
2022-09-28T07:46:22.212Z,16.95
2022-09-28T07:51:34.867Z,16.95
2022-09-28T07:56:57.564Z,16.95
2022-09-28T08:02:20.315Z,17.43
2022-09-28T08:07:24.253Z,17.14
2022-09-28T08:12:34.009Z,17.55
2022-09-28T08:17:47.250Z,17.46
2022-09-28T08:22:49.757Z,17.39
2022-09-28T08:27:52.329Z,17.43
2022-09-28T08:32:54.605Z,17.68
2022-09-28T08:38:15.408Z,17.84
2022-09-28T08:43:50.432Z,17.96
2022-09-28T08:49:26.486Z,18.29
2022-09-28T08:54:58.839Z,18.19
2022-09-28T09:00:22.912Z,18.38
2022-09-28T09:05:45.989Z,18.92
2022-09-28T09:10:58.880Z,18.76
2022-09-28T09:16:38.092Z,18.95
2022-09-28T09:22:30.461Z,18.84
2022-09-28T09:28:20.765Z,18.69
2022-09-28T09:34:04.340Z,18.28
2022-09-28T09:39:35.296Z,18.63
2022-09-28T09:45:29.152Z,18.70
2022-09-28T09:51:26.618Z,18.22
2022-09-28T09:56:43.753Z,18.03
2022-09-28T10:02:23.233Z,17.79
2022-09-28T10:07:46.091Z,17.69
2022-09-28T10:12:51.072Z,17.64
2022-09-28T10:17:55.928Z,17.77
2022-09-28T10:23:38.025Z,17.73
2022-09-28T10:28:48.224Z,17.94
2022-09-28T10:33:53.531Z,18.14
2022-09-28T10:38:55.970Z,18.37
2022-09-28T10:44:10.710Z,18.88
2022-09-28T10:49:43.108Z,18.39
2022-09-28T10:54:53.630Z,18.32
2022-09-28T10:59:57.249Z,17.90
2022-09-28T11:05:07.351Z,17.54
2022-09-28T11:10:27.338Z,17.40
2022-09-28T11:15:33.986Z,17.48
2022-09-28T11:20:44.056Z,17.89
2022-09-28T11:26:06.900Z,18.28
2022-09-28T11:31:10.141Z,18.57
2022-09-28T11:37:01.854Z,18.19
2022-09-28T11:42:29.153Z,18.42
2022-09-28T11:47:47.242Z,18.44
2022-09-28T11:52:54.900Z,18.32
2022-09-28T11:58:04.031Z,17.92
2022-09-28T12:03:13.689Z,18.13
2022-09-28T12:08:20.250Z,18.32
2022-09-28T12:13:39.087Z,18.65
2022-09-28T12:18:53.462Z,18.57
2022-09-28T12:24:24.963Z,18.88
2022-09-28T12:29:33.596Z,19.20
2022-09-28T12:34:35.583Z,20.06
2022-09-28T12:39:57.883Z,19.62
2022-09-28T12:45:22.148Z,19.05
2022-09-28T12:50:57.767Z,18.86
2022-09-28T12:56:10.283Z,18.10
2022-09-28T13:01:44.356Z,17.99
2022-09-28T13:07:08.086Z,18.11
2022-09-28T13:12:13.121Z,17.97
2022-09-28T13:17:18.004Z,18.07
2022-09-28T13:22:28.962Z,18.78
2022-09-28T13:27:38.087Z,19.17
2022-09-28T13:32:42.178Z,18.99
2022-09-28T13:37:44.097Z,18.56
2022-09-28T13:42:54.536Z,18.41
2022-09-28T13:48:17.445Z,17.85
2022-09-28T13:53:25.302Z,17.31
2022-09-28T13:58:47.877Z,17.19
2022-09-28T14:03:55.225Z,17.73
2022-09-28T14:09:18.697Z,18.27
2022-09-28T14:14:51.783Z,18.44
2022-09-28T14:20:08.067Z,18.43
2022-09-28T14:25:31.341Z,18.33
2022-09-28T14:30:42.503Z,17.78
2022-09-28T14:35:56.426Z,17.60
2022-09-28T14:41:10.604Z,17.48
2022-09-28T14:46:17.239Z,17.64
2022-09-28T14:51:42.388Z,17.88
2022-09-28T14:56:53.376Z,17.76
2022-09-28T15:02:06.338Z,17.67
2022-09-28T15:07:23.063Z,17.29
2022-09-28T15:12:32.064Z,17.31
2022-09-28T15:17:40.367Z,17.33
2022-09-28T15:22:50.800Z,17.22
2022-09-28T15:27:55.680Z,17.06
2022-09-28T15:33:18.834Z,17.14
2022-09-28T15:38:21.205Z,17.03
2022-09-28T15:43:32.824Z,16.73
2022-09-28T15:49:00.773Z,16.63
2022-09-28T15:54:09.294Z,16.59
2022-09-28T15:59:31.036Z,16.39
2022-09-28T16:04:38.959Z,16.22
2022-09-28T16:10:13.090Z,16.20
2022-09-28T16:15:20.213Z,16.11
2022-09-28T16:20:32.139Z,16.04
2022-09-28T16:25:39.235Z,15.83
2022-09-28T16:31:07.577Z,15.66
2022-09-28T16:36:14.326Z,15.57
2022-09-28T16:41:20.850Z,15.28
2022-09-28T16:46:29.347Z,15.23
2022-09-28T16:51:31.656Z,15.22
2022-09-28T16:56:35.362Z,15.17
2022-09-28T17:01:42.258Z,15.26
2022-09-28T17:06:44.314Z,15.43
2022-09-28T17:11:46.333Z,15.34
2022-09-28T17:17:07.817Z,15.31
2022-09-28T17:22:11.888Z,15.42
2022-09-28T17:27:18.195Z,15.30
2022-09-28T17:32:20.279Z,15.22
2022-09-28T17:37:22.831Z,15.14
2022-09-28T17:42:24.891Z,15.13
2022-09-28T17:47:29.052Z,15.23
2022-09-28T17:52:34.598Z,15.04
2022-09-28T17:57:36.821Z,15.07
2022-09-28T18:02:39.063Z,15.04
2022-09-28T18:07:46.779Z,14.87
2022-09-28T18:12:50.711Z,14.95
2022-09-28T18:17:52.943Z,15.06
2022-09-28T18:23:00.317Z,14.86
2022-09-28T18:28:02.755Z,14.88
2022-09-28T18:33:05.150Z,14.91
2022-09-28T18:38:07.296Z,14.91
2022-09-28T18:43:09.325Z,14.96
2022-09-28T18:48:11.360Z,14.89
2022-09-28T18:53:13.427Z,14.89
2022-09-28T18:58:15.480Z,14.88
2022-09-28T19:03:18.355Z,14.81
2022-09-28T19:08:23.191Z,14.79
2022-09-28T19:13:28.845Z,14.67
2022-09-28T19:18:31.305Z,14.44
2022-09-28T19:23:34.522Z,14.57
2022-09-28T19:28:36.447Z,14.42
2022-09-28T19:33:39.791Z,14.33
2022-09-28T19:38:42.306Z,14.05
2022-09-28T19:43:44.234Z,14.14
2022-09-28T19:48:47.421Z,14.17
2022-09-28T19:53:49.373Z,14.24
2022-09-28T19:58:51.448Z,13.82
2022-09-28T20:03:58.286Z,13.88
2022-09-28T20:09:00.254Z,13.19
2022-09-28T20:14:06.530Z,13.34
2022-09-28T20:19:08.513Z,13.60
2022-09-28T20:24:11.614Z,13.55
2022-09-28T20:29:13.754Z,13.40
2022-09-28T20:34:15.826Z,12.93
2022-09-28T20:39:17.700Z,12.71
2022-09-28T20:44:19.768Z,12.57
2022-09-28T20:49:21.855Z,12.58
2022-09-28T20:54:23.733Z,12.56
2022-09-28T20:59:27.649Z,12.51
2022-09-28T21:04:29.561Z,12.38
2022-09-28T21:09:32.425Z,12.23
2022-09-28T21:14:34.299Z,12.07
2022-09-28T21:19:36.265Z,11.98
2022-09-28T21:24:38.430Z,11.84
2022-09-28T21:29:40.621Z,12.02
2022-09-28T21:34:42.562Z,12.32
2022-09-28T21:39:44.496Z,12.56
2022-09-28T21:44:46.376Z,12.65
2022-09-28T21:49:48.326Z,12.93
2022-09-28T21:54:50.234Z,13.09
2022-09-28T21:59:52.652Z,13.26
2022-09-28T22:04:54.581Z,13.31
2022-09-28T22:09:56.589Z,13.24
2022-09-28T22:14:58.670Z,13.22
2022-09-28T22:20:00.782Z,13.20
2022-09-28T22:25:02.984Z,13.19
2022-09-28T22:30:05.353Z,13.03
2022-09-28T22:35:07.752Z,13.02
2022-09-28T22:40:12.729Z,13.06
2022-09-28T22:45:14.956Z,13.04
2022-09-28T22:50:16.908Z,13.14
2022-09-28T22:55:18.828Z,13.32
2022-09-28T23:00:20.905Z,13.32
2022-09-28T23:05:22.829Z,13.37
2022-09-28T23:10:24.728Z,13.41
2022-09-28T23:15:27.953Z,13.15
2022-09-28T23:20:29.861Z,13.09
2022-09-28T23:25:32.009Z,13.09
2022-09-28T23:30:33.844Z,12.94
2022-09-28T23:35:35.767Z,12.85
2022-09-28T23:40:37.860Z,12.96
2022-09-28T23:45:40.588Z,13.04
2022-09-28T23:50:43.506Z,12.82
2022-09-28T23:55:45.556Z,12.66
